Wheeler, Mississippi
Current Conditions -  °F | °C
As of 8:23 AM on Sunday 23 Nov 2014 (Local Time) from KTUP Reporting Station
Haze Haze  
Wind Chill: 58°   Ceiling: 500
Heat Index: 58°   Visibility: 2.5mi
Dew Point: 56°   Wind: 5mph
Humidity: 93%   Direction: 90°E
Pressure: 29.76"   Gusts: NA
Location:  34.58°N, 88.61°W
Report Text: KTUP 231423Z 09004KT 2 1/2SM BR OVC005 14/13 A2976 RMK AO2 RAE1355 P0001 T01440133 $
Loading
Personal Weather Stations






























Interactive Weather Map New forecast layout! Learn more

10-Day Weather Forecast

Advertisements
Track Severe Weather on mobile